createdAt,value
2018-12-05T00:00:27.388Z,0.00
2018-12-05T00:01:27.380Z,0.00
2018-12-05T00:02:27.358Z,0.00
2018-12-05T00:03:27.344Z,0.00
2018-12-05T00:04:27.329Z,0.00
2018-12-05T00:05:27.314Z,0.00
2018-12-05T00:06:27.300Z,0.00
2018-12-05T00:07:27.283Z,0.00
2018-12-05T00:08:27.268Z,0.00
2018-12-05T00:09:27.253Z,0.00
2018-12-05T00:10:27.243Z,0.00
2018-12-05T00:11:27.222Z,0.00
2018-12-05T00:12:27.207Z,0.00
2018-12-05T00:13:27.193Z,0.00
2018-12-05T00:14:27.177Z,0.00
2018-12-05T00:15:27.162Z,0.00
2018-12-05T00:16:27.147Z,0.00
2018-12-05T00:17:27.132Z,0.00
2018-12-05T00:18:27.120Z,0.00
2018-12-05T00:19:27.101Z,0.00
2018-12-05T00:20:27.086Z,0.00
2018-12-05T00:21:27.072Z,0.00
2018-12-05T00:22:27.059Z,0.00
2018-12-05T00:23:27.042Z,0.00
2018-12-05T00:24:27.026Z,0.00
2018-12-05T00:25:27.015Z,0.00
2018-12-05T00:26:26.998Z,0.00
2018-12-05T00:27:26.981Z,0.00
2018-12-05T00:28:26.966Z,0.00
2018-12-05T00:29:26.952Z,0.00
2018-12-05T00:30:26.954Z,0.00
2018-12-05T00:31:26.921Z,0.00
2018-12-05T00:32:26.906Z,0.00
2018-12-05T00:33:26.892Z,0.00
2018-12-05T00:34:26.875Z,0.00
2018-12-05T00:35:26.863Z,0.00
2018-12-05T00:36:26.846Z,0.00
2018-12-05T00:37:26.833Z,0.00
2018-12-05T00:38:26.816Z,0.00
2018-12-05T00:39:26.801Z,0.00
2018-12-05T00:40:26.787Z,0.00
2018-12-05T00:41:26.774Z,0.00
2018-12-05T00:42:26.759Z,0.00
2018-12-05T00:43:26.745Z,0.00
2018-12-05T00:44:26.728Z,0.00
2018-12-05T00:45:26.712Z,0.00
2018-12-05T00:46:26.696Z,0.00
2018-12-05T00:47:26.681Z,0.00
2018-12-05T00:49:26.653Z,0.00
2018-12-05T00:50:26.640Z,0.00
2018-12-05T00:51:26.622Z,0.00
2018-12-05T00:52:26.607Z,0.00
2018-12-05T00:53:26.592Z,0.00
2018-12-05T00:54:26.576Z,0.00
2018-12-05T00:55:26.562Z,0.00
2018-12-05T00:56:26.547Z,0.00
2018-12-05T00:57:26.534Z,0.00
2018-12-05T00:58:26.515Z,0.00
2018-12-05T00:59:26.500Z,0.00
2018-12-05T01:00:26.485Z,0.00
2018-12-05T01:01:26.470Z,0.00
2018-12-05T01:02:26.454Z,0.00
2018-12-05T01:03:26.639Z,0.00
2018-12-05T01:04:26.425Z,0.00
2018-12-05T01:05:26.409Z,0.00
2018-12-05T01:06:26.392Z,0.00
2018-12-05T01:07:26.377Z,0.00
2018-12-05T01:08:26.369Z,0.00
2018-12-05T01:09:26.347Z,0.00
2018-12-05T01:10:26.331Z,0.00
2018-12-05T01:11:26.316Z,0.00
2018-12-05T01:12:26.301Z,0.00
2018-12-05T01:13:26.286Z,0.00
2018-12-05T01:14:26.269Z,0.00
2018-12-05T01:15:26.257Z,0.00
2018-12-05T01:16:26.239Z,0.00
2018-12-05T01:17:26.225Z,0.00
2018-12-05T01:18:26.208Z,0.00
2018-12-05T01:19:26.197Z,0.00
2018-12-05T01:20:26.178Z,0.00
2018-12-05T01:21:26.163Z,0.00
2018-12-05T01:22:26.147Z,0.00
2018-12-05T01:23:26.132Z,0.00
2018-12-05T01:24:26.123Z,0.00
2018-12-05T01:25:26.102Z,0.00
2018-12-05T01:26:26.087Z,0.00
2018-12-05T01:27:26.072Z,0.00
2018-12-05T01:28:26.057Z,0.00
2018-12-05T01:30:26.026Z,0.00
2018-12-05T01:31:26.011Z,0.00
2018-12-05T01:32:25.997Z,0.00
2018-12-05T01:33:25.982Z,0.00
2018-12-05T01:34:25.966Z,0.00
2018-12-05T01:35:25.952Z,0.00
2018-12-05T01:36:25.937Z,0.00
2018-12-05T01:37:25.922Z,0.00
2018-12-05T01:38:25.906Z,0.00
2018-12-05T01:39:25.898Z,0.00
2018-12-05T01:40:25.876Z,0.00
2018-12-05T01:41:25.862Z,0.00
2018-12-05T01:42:25.847Z,0.00
2018-12-05T01:43:25.832Z,0.00
2018-12-05T01:44:25.821Z,0.00
2018-12-05T01:45:26.005Z,0.00
2018-12-05T01:46:25.790Z,0.00
2018-12-05T01:47:25.773Z,0.00
2018-12-05T01:48:25.758Z,0.00
2018-12-05T01:49:25.744Z,0.00
2018-12-05T01:50:25.728Z,0.00
2018-12-05T01:51:25.918Z,0.00
2018-12-05T01:52:25.703Z,0.00
2018-12-05T01:53:25.685Z,0.00
2018-12-05T01:54:25.670Z,0.00
2018-12-05T01:55:25.655Z,0.00
2018-12-05T01:56:25.641Z,0.00
2018-12-05T01:57:25.626Z,0.00
2018-12-05T01:58:25.611Z,0.00
2018-12-05T01:59:25.596Z,0.00
2018-12-05T02:00:25.585Z,0.00
2018-12-05T02:01:25.568Z,0.00
2018-12-05T02:02:25.551Z,0.00
2018-12-05T02:03:25.539Z,0.00
2018-12-05T02:04:25.527Z,0.00
2018-12-05T02:05:25.513Z,0.00
2018-12-05T02:06:25.493Z,0.00
2018-12-05T02:07:25.483Z,0.00
2018-12-05T02:08:25.464Z,0.00
2018-12-05T02:09:25.450Z,0.00
2018-12-05T02:10:25.434Z,0.00
2018-12-05T02:11:25.420Z,0.00
2018-12-05T02:12:25.405Z,0.00
2018-12-05T02:13:25.879Z,0.00
2018-12-05T02:14:25.376Z,0.00
2018-12-05T02:15:25.362Z,0.00
2018-12-05T02:16:25.345Z,0.00
2018-12-05T02:17:25.331Z,0.00
2018-12-05T02:18:25.316Z,0.00
2018-12-05T02:19:25.301Z,0.00
2018-12-05T02:20:25.287Z,0.00
2018-12-05T02:21:25.272Z,0.00
2018-12-05T02:22:25.256Z,0.00
2018-12-05T02:23:25.242Z,0.00
2018-12-05T02:24:25.227Z,0.00
2018-12-05T02:25:25.216Z,0.00
2018-12-05T02:26:25.202Z,0.00
2018-12-05T02:27:25.185Z,0.00
2018-12-05T02:28:25.169Z,0.00
2018-12-05T02:29:25.155Z,0.00
2018-12-05T02:30:25.140Z,0.00
2018-12-05T02:31:25.126Z,0.00
2018-12-05T02:32:25.187Z,0.00
2018-12-05T02:33:25.101Z,0.00
2018-12-05T02:34:25.081Z,0.00
2018-12-05T02:35:25.066Z,0.00
2018-12-05T02:36:25.051Z,0.00
2018-12-05T02:37:25.037Z,0.00
2018-12-05T02:38:25.021Z,0.00
2018-12-05T02:39:25.007Z,0.00
2018-12-05T02:40:24.995Z,0.00
2018-12-05T02:41:24.982Z,0.00
2018-12-05T02:42:24.963Z,0.00
2018-12-05T02:43:24.948Z,0.00
2018-12-05T02:44:24.938Z,0.00
2018-12-05T02:45:24.920Z,0.00
2018-12-05T02:46:24.909Z,0.00
2018-12-05T02:47:24.890Z,0.00
2018-12-05T02:48:24.876Z,0.00
2018-12-05T02:49:24.861Z,0.00
2018-12-05T02:50:24.846Z,0.00
2018-12-05T02:51:24.837Z,0.00
2018-12-05T02:52:24.828Z,0.00
2018-12-05T02:53:24.804Z,0.00
2018-12-05T02:54:24.792Z,0.00
2018-12-05T02:55:24.782Z,0.00
2018-12-05T02:56:24.759Z,0.00
2018-12-05T02:57:24.743Z,0.00
2018-12-05T02:58:24.730Z,0.00
2018-12-05T02:59:24.714Z,0.00
2018-12-05T03:00:24.700Z,0.00
2018-12-05T03:01:24.686Z,0.00
2018-12-05T03:02:24.670Z,0.00
2018-12-05T03:03:24.656Z,0.00
2018-12-05T03:04:24.646Z,0.00
2018-12-05T03:05:24.635Z,0.00
2018-12-05T03:06:24.611Z,0.00
2018-12-05T03:07:24.597Z,0.00
2018-12-05T03:08:24.584Z,0.00
2018-12-05T03:09:24.569Z,0.00
2018-12-05T03:10:24.561Z,0.00
2018-12-05T03:11:24.541Z,0.00
2018-12-05T03:12:24.529Z,0.00
2018-12-05T03:13:24.511Z,0.00
2018-12-05T03:14:24.495Z,0.00
2018-12-05T03:15:24.481Z,0.00
2018-12-05T03:16:24.467Z,0.00
2018-12-05T03:17:24.452Z,0.00
2018-12-05T03:18:24.438Z,0.00
2018-12-05T03:19:24.423Z,0.00
2018-12-05T03:20:24.408Z,0.00
2018-12-05T03:21:24.394Z,0.00
2018-12-05T03:22:24.382Z,0.00
2018-12-05T03:23:24.567Z,0.00
2018-12-05T03:24:24.354Z,0.00
2018-12-05T03:25:24.337Z,0.00
2018-12-05T03:26:24.321Z,0.00
2018-12-05T03:27:24.307Z,0.00
2018-12-05T03:28:24.293Z,0.00
2018-12-05T03:29:24.279Z,0.00
2018-12-05T03:30:24.279Z,0.00
2018-12-05T03:31:24.252Z,0.00
2018-12-05T03:32:24.236Z,0.00
2018-12-05T03:33:24.221Z,0.00
2018-12-05T03:34:24.205Z,0.00
2018-12-05T03:35:24.191Z,0.00
2018-12-05T03:36:24.180Z,0.00
2018-12-05T03:37:24.162Z,0.00
2018-12-05T03:38:24.150Z,0.00
2018-12-05T03:39:24.132Z,0.00
2018-12-05T03:40:24.120Z,0.00
2018-12-05T03:41:24.104Z,0.00
2018-12-05T03:42:24.088Z,0.00
2018-12-05T03:43:24.074Z,0.00
2018-12-05T03:44:24.059Z,0.00
2018-12-05T03:45:24.049Z,0.00
2018-12-05T03:46:24.029Z,0.00
2018-12-05T03:47:24.014Z,0.00
2018-12-05T03:48:23.999Z,0.00
2018-12-05T03:49:23.986Z,0.00
2018-12-05T03:50:23.969Z,0.00
2018-12-05T03:51:23.955Z,0.00
2018-12-05T03:52:23.940Z,0.00
2018-12-05T03:53:23.929Z,0.00
2018-12-05T03:54:23.909Z,0.00
2018-12-05T03:55:23.894Z,0.00
2018-12-05T03:56:23.882Z,0.00
2018-12-05T03:57:23.865Z,0.00
2018-12-05T03:58:23.848Z,0.00
2018-12-05T03:59:23.838Z,0.00
2018-12-05T04:00:23.822Z,0.00
2018-12-05T04:01:23.804Z,0.00
2018-12-05T04:02:23.789Z,0.00
2018-12-05T04:03:23.774Z,0.00
2018-12-05T04:04:23.764Z,0.00
2018-12-05T04:05:23.953Z,0.00
2018-12-05T04:06:23.730Z,0.00
2018-12-05T04:07:23.712Z,0.00
2018-12-05T04:08:23.698Z,0.00
2018-12-05T04:09:23.691Z,0.00
2018-12-05T04:10:23.668Z,0.00
2018-12-05T04:11:23.653Z,0.00
2018-12-05T04:12:23.638Z,0.00
2018-12-05T04:13:23.626Z,0.00
2018-12-05T04:14:23.606Z,0.00
2018-12-05T04:15:23.592Z,0.00
2018-12-05T04:16:23.576Z,0.00
2018-12-05T04:17:23.562Z,0.00
2018-12-05T04:18:23.547Z,0.00
2018-12-05T04:19:23.531Z,0.00
2018-12-05T04:20:23.516Z,0.00
2018-12-05T04:21:23.500Z,0.00
2018-12-05T04:22:23.486Z,0.00
2018-12-05T04:23:25.294Z,0.00
2018-12-05T04:24:23.464Z,0.00
2018-12-05T04:25:23.441Z,0.00
2018-12-05T04:26:23.428Z,0.00
2018-12-05T04:27:23.409Z,0.00
2018-12-05T04:28:23.394Z,0.00
2018-12-05T04:29:23.382Z,0.00
2018-12-05T04:30:23.363Z,0.00
2018-12-05T04:31:23.348Z,0.00
2018-12-05T04:32:23.341Z,0.00
2018-12-05T04:33:23.319Z,0.00
2018-12-05T04:34:23.304Z,0.00
2018-12-05T04:35:23.289Z,0.00
2018-12-05T04:36:23.275Z,0.00
2018-12-05T04:37:23.259Z,0.00
2018-12-05T04:38:23.245Z,0.00
2018-12-05T04:39:23.231Z,0.00
2018-12-05T04:40:23.214Z,0.00
2018-12-05T04:41:23.200Z,0.00
2018-12-05T04:42:23.264Z,0.00
2018-12-05T04:43:23.177Z,0.00
2018-12-05T04:44:23.157Z,0.00
2018-12-05T04:45:23.144Z,0.00
2018-12-05T04:46:23.126Z,0.00
2018-12-05T04:47:23.110Z,0.00
2018-12-05T04:48:23.095Z,0.00
2018-12-05T04:49:23.079Z,0.00
2018-12-05T04:50:23.065Z,0.00
2018-12-05T04:51:23.052Z,0.00
2018-12-05T04:52:23.034Z,0.00
2018-12-05T04:53:23.020Z,0.00
2018-12-05T04:54:23.005Z,0.00
2018-12-05T04:55:22.989Z,0.00
2018-12-05T04:56:22.974Z,0.00
2018-12-05T04:57:22.960Z,0.00
2018-12-05T04:58:22.943Z,0.00
2018-12-05T04:59:22.929Z,0.00
2018-12-05T05:00:22.914Z,0.00
2018-12-05T05:01:22.898Z,0.00
2018-12-05T05:02:22.882Z,0.00
2018-12-05T05:03:22.869Z,0.00
2018-12-05T05:04:22.861Z,0.00
2018-12-05T05:05:22.838Z,0.00
2018-12-05T05:06:22.823Z,0.00
2018-12-05T05:07:22.809Z,0.00
2018-12-05T05:08:22.792Z,0.00
2018-12-05T05:09:22.854Z,0.00
2018-12-05T05:10:22.761Z,0.00
2018-12-05T05:11:22.748Z,0.00
2018-12-05T05:12:22.731Z,0.00
2018-12-05T05:13:22.724Z,0.00
2018-12-05T05:14:22.704Z,0.00
2018-12-05T05:15:22.686Z,0.00
2018-12-05T05:16:22.672Z,0.00
2018-12-05T05:17:22.656Z,0.00
2018-12-05T05:18:22.641Z,0.00
2018-12-05T05:19:22.625Z,0.00
2018-12-05T05:20:22.610Z,0.00
2018-12-05T05:21:22.596Z,0.00
2018-12-05T05:22:22.580Z,0.00
2018-12-05T05:23:22.601Z,0.00
2018-12-05T05:24:22.550Z,0.00
2018-12-05T05:25:22.537Z,0.00
2018-12-05T05:26:22.521Z,0.00
2018-12-05T05:27:22.511Z,0.00
2018-12-05T05:28:22.492Z,0.00
2018-12-05T05:29:22.481Z,0.00
2018-12-05T05:30:22.462Z,0.00
2018-12-05T05:31:23.833Z,0.00
2018-12-05T05:32:22.434Z,0.00
2018-12-05T05:33:22.420Z,0.00
2018-12-05T05:34:22.410Z,0.00
2018-12-05T05:35:22.391Z,0.00
2018-12-05T05:36:22.391Z,0.00
2018-12-05T05:37:22.362Z,0.00
2018-12-05T05:38:22.347Z,0.00
2018-12-05T05:39:22.334Z,0.00
2018-12-05T05:40:22.319Z,0.00
2018-12-05T05:41:22.305Z,0.00
2018-12-05T05:42:22.293Z,0.00
2018-12-05T05:43:22.275Z,0.00
2018-12-05T05:44:22.262Z,0.00
2018-12-05T05:45:22.253Z,0.00
2018-12-05T05:46:22.232Z,0.00
2018-12-05T05:47:22.219Z,0.00
2018-12-05T05:48:22.204Z,0.00
2018-12-05T05:49:22.196Z,0.00
2018-12-05T05:50:22.175Z,0.00
2018-12-05T05:51:22.161Z,0.00
2018-12-05T05:52:22.147Z,0.00
2018-12-05T05:53:22.136Z,0.00
2018-12-05T05:54:22.118Z,0.00
2018-12-05T05:55:22.139Z,0.00
2018-12-05T05:56:22.090Z,0.00
2018-12-05T05:57:22.076Z,0.00
2018-12-05T05:58:22.062Z,0.00
2018-12-05T05:59:22.053Z,0.00
2018-12-05T06:00:22.033Z,0.00
2018-12-05T06:01:22.020Z,0.00
2018-12-05T06:02:22.007Z,0.00
2018-12-05T06:03:21.991Z,0.00
2018-12-05T06:04:21.977Z,0.00
2018-12-05T06:05:21.964Z,0.00
2018-12-05T06:06:21.949Z,0.00
2018-12-05T06:07:21.935Z,0.00
2018-12-05T06:08:21.921Z,0.00
2018-12-05T06:09:21.908Z,0.00
2018-12-05T06:10:21.892Z,0.00
2018-12-05T06:11:21.879Z,0.00
2018-12-05T06:12:21.866Z,0.00
2018-12-05T06:13:21.851Z,0.00
2018-12-05T06:14:21.837Z,0.00
2018-12-05T06:15:21.823Z,0.00
2018-12-05T06:16:21.813Z,0.00
2018-12-05T06:17:21.797Z,0.00
2018-12-05T06:18:21.782Z,0.00
2018-12-05T06:19:21.769Z,0.00
2018-12-05T06:20:21.755Z,0.00
2018-12-05T06:21:21.743Z,0.00
2018-12-05T06:22:21.727Z,0.00
2018-12-05T06:23:21.715Z,0.00
2018-12-05T06:24:21.705Z,0.00
2018-12-05T06:25:21.688Z,0.00
2018-12-05T06:26:21.673Z,0.00
2018-12-05T06:27:21.660Z,0.00
2018-12-05T06:28:21.647Z,0.00
2018-12-05T06:29:21.634Z,0.00
2018-12-05T06:30:21.620Z,0.00
2018-12-05T06:31:21.605Z,0.00
2018-12-05T06:32:21.592Z,0.00
2018-12-05T06:33:21.580Z,0.00
2018-12-05T06:34:21.567Z,0.00
2018-12-05T06:35:21.552Z,0.00
2018-12-05T06:36:21.538Z,0.00
2018-12-05T06:37:21.541Z,0.00
2018-12-05T06:38:21.511Z,0.00
2018-12-05T06:39:21.500Z,0.00
2018-12-05T06:40:21.487Z,0.00
2018-12-05T06:41:21.475Z,0.00
2018-12-05T06:42:21.458Z,0.00
2018-12-05T06:43:21.444Z,0.00
2018-12-05T06:44:21.432Z,0.00
2018-12-05T06:45:21.419Z,0.00
2018-12-05T06:46:21.408Z,0.00
2018-12-05T06:47:21.393Z,0.00
2018-12-05T06:48:21.379Z,4.00
2018-12-05T06:49:21.367Z,4.00
2018-12-05T06:50:21.357Z,0.00
2018-12-05T06:51:21.339Z,4.00
2018-12-05T06:52:21.331Z,4.00
2018-12-05T06:53:21.314Z,4.00
2018-12-05T06:54:21.300Z,4.00
2018-12-05T06:55:21.290Z,4.00
2018-12-05T06:56:21.274Z,4.00
2018-12-05T06:57:21.261Z,4.00
2018-12-05T06:58:21.248Z,8.00
2018-12-05T06:59:21.238Z,8.00
2018-12-05T07:00:21.227Z,8.00
2018-12-05T07:01:21.211Z,12.00
2018-12-05T07:02:21.195Z,12.00
2018-12-05T07:03:21.183Z,12.00
2018-12-05T07:04:21.170Z,16.00
2018-12-05T07:05:21.157Z,16.00
2018-12-05T07:06:21.152Z,16.00
2018-12-05T07:07:21.139Z,20.00
2018-12-05T07:08:21.119Z,20.00
2018-12-05T07:09:21.107Z,28.00
2018-12-05T07:10:21.093Z,28.00
2018-12-05T07:11:21.087Z,32.00
2018-12-05T07:12:21.072Z,36.00
2018-12-05T07:13:21.056Z,44.00
2018-12-05T07:14:21.042Z,48.00
2018-12-05T07:15:21.030Z,52.00
2018-12-05T07:16:21.022Z,56.00
2018-12-05T07:17:21.008Z,60.00
2018-12-05T07:18:20.990Z,64.00
2018-12-05T07:19:20.984Z,68.00
2018-12-05T07:20:20.966Z,68.00
2018-12-05T07:21:20.953Z,72.00
2018-12-05T07:22:20.940Z,72.00
2018-12-05T07:23:20.927Z,80.00
2018-12-05T07:24:20.923Z,88.00
2018-12-05T07:25:20.903Z,96.00
2018-12-05T07:26:20.889Z,104.00
2018-12-05T07:27:20.881Z,116.00
2018-12-05T07:28:20.875Z,124.00
2018-12-05T07:29:20.851Z,148.00
2018-12-05T07:30:20.839Z,164.00
2018-12-05T07:31:20.826Z,184.00
2018-12-05T07:32:20.814Z,200.00
2018-12-05T07:33:20.807Z,216.00
2018-12-05T07:34:20.790Z,232.00
2018-12-05T07:35:20.775Z,248.00
2018-12-05T07:36:20.764Z,252.00
2018-12-05T07:37:20.753Z,248.00
2018-12-05T07:38:20.741Z,252.00
2018-12-05T07:40:20.716Z,300.00
2018-12-05T07:41:20.702Z,340.00
2018-12-05T07:42:20.689Z,376.00
2018-12-05T07:43:20.680Z,408.00
2018-12-05T07:44:20.664Z,440.00
2018-12-05T07:45:20.660Z,464.00
2018-12-05T07:46:20.640Z,488.00
2018-12-05T07:47:20.630Z,512.00
2018-12-05T07:48:20.617Z,544.00
2018-12-05T07:49:20.603Z,576.00
2018-12-05T07:50:20.594Z,612.00
2018-12-05T07:51:20.578Z,640.00
2018-12-05T07:52:20.975Z,648.00
2018-12-05T07:53:20.553Z,660.00
2018-12-05T07:54:20.541Z,676.00
2018-12-05T07:55:20.528Z,712.00
2018-12-05T07:56:20.515Z,748.00
2018-12-05T07:57:20.509Z,784.00
2018-12-05T07:58:20.495Z,812.00
2018-12-05T07:59:20.478Z,840.00
2018-12-05T08:00:20.465Z,876.00
2018-12-05T08:01:20.456Z,924.00
2018-12-05T08:02:20.481Z,960.00
2018-12-05T08:03:20.437Z,1000.00
2018-12-05T08:04:20.417Z,1032.00
2018-12-05T08:05:20.408Z,1072.00
2018-12-05T08:06:20.392Z,1120.00
2018-12-05T08:07:20.379Z,1152.00
2018-12-05T08:08:20.371Z,1176.00
2018-12-05T08:09:20.360Z,1200.00
2018-12-05T08:10:20.343Z,1228.00
2018-12-05T08:11:20.332Z,1224.00
2018-12-05T08:12:20.321Z,1200.00
2018-12-05T08:13:20.391Z,1184.00
2018-12-05T08:14:20.302Z,1212.00
2018-12-05T08:15:20.285Z,1288.00
2018-12-05T08:16:20.271Z,1412.00
2018-12-05T08:17:20.263Z,1576.00
2018-12-05T08:18:20.247Z,1708.00
2018-12-05T08:19:20.235Z,1780.00
2018-12-05T08:20:20.224Z,1832.00
2018-12-05T08:21:20.215Z,1844.00
2018-12-05T08:22:20.199Z,1860.00
2018-12-05T08:23:20.193Z,1792.00
2018-12-05T08:24:20.226Z,1728.00
2018-12-05T08:25:20.167Z,1708.00
2018-12-05T08:26:20.152Z,1752.00
2018-12-05T08:27:20.140Z,1816.00
2018-12-05T08:28:20.140Z,1848.00
2018-12-05T08:29:20.123Z,1912.00
2018-12-05T08:30:20.177Z,1980.00
2018-12-05T08:31:20.098Z,2072.00
2018-12-05T08:32:20.085Z,2196.00
2018-12-05T08:33:20.073Z,2276.00
2018-12-05T08:34:20.058Z,2348.00
2018-12-05T08:35:20.048Z,2468.00
2018-12-05T08:36:20.237Z,2632.00
2018-12-05T08:37:20.025Z,2792.00
2018-12-05T08:38:20.013Z,2928.00
2018-12-05T08:39:20.003Z,2972.00
2018-12-05T08:40:19.993Z,2924.00
2018-12-05T08:41:19.978Z,2920.00
2018-12-05T08:42:19.967Z,3016.00
2018-12-05T08:43:19.965Z,3096.00
2018-12-05T08:44:19.944Z,3160.00
2018-12-05T08:45:19.932Z,3156.00
2018-12-05T08:46:19.920Z,3124.00
2018-12-05T08:47:19.909Z,3140.00
2018-12-05T08:48:19.899Z,3256.00
2018-12-05T08:49:19.886Z,3480.00
2018-12-05T08:50:19.879Z,3696.00
2018-12-05T08:51:19.868Z,3940.00
2018-12-05T08:52:19.852Z,4008.00
2018-12-05T08:53:19.846Z,4032.00
2018-12-05T08:54:21.264Z,3996.00
2018-12-05T08:55:19.825Z,3988.00
2018-12-05T08:56:19.807Z,3924.00
2018-12-05T08:57:19.796Z,3892.00
2018-12-05T08:58:19.790Z,3900.00
2018-12-05T08:59:19.776Z,3864.00
2018-12-05T09:00:19.763Z,3708.00
2018-12-05T09:01:19.758Z,3572.00
2018-12-05T09:02:19.740Z,3564.00
2018-12-05T09:03:19.734Z,3680.00
2018-12-05T09:04:19.722Z,3876.00
2018-12-05T09:05:19.713Z,4252.00
2018-12-05T09:06:19.697Z,4656.00
2018-12-05T09:07:19.688Z,4916.00
2018-12-05T09:08:19.677Z,5104.00
2018-12-05T09:09:19.664Z,5100.00
2018-12-05T09:10:19.655Z,5096.00
2018-12-05T09:11:19.645Z,4940.00
2018-12-05T09:12:19.631Z,4656.00
2018-12-05T09:13:19.621Z,4444.00
2018-12-05T09:14:19.612Z,4216.00
2018-12-05T09:15:19.605Z,4080.00
2018-12-05T09:16:19.592Z,4020.00
2018-12-05T09:17:19.581Z,4028.00
2018-12-05T09:18:19.569Z,4084.00
2018-12-05T09:19:19.556Z,4156.00
2018-12-05T09:20:19.557Z,4372.00
2018-12-05T09:21:19.535Z,4728.00
2018-12-05T09:22:19.523Z,5064.00
2018-12-05T09:23:19.512Z,5304.00
2018-12-05T09:24:19.502Z,5336.00
2018-12-05T09:25:19.492Z,5244.00
2018-12-05T09:26:19.484Z,5304.00
2018-12-05T09:27:19.470Z,5312.00
2018-12-05T09:28:19.459Z,5256.00
2018-12-05T09:29:19.449Z,5260.00
2018-12-05T09:30:19.439Z,5240.00
2018-12-05T09:31:19.428Z,5240.00
2018-12-05T09:32:19.426Z,5364.00
2018-12-05T09:33:19.408Z,5540.00
2018-12-05T09:34:19.402Z,5692.00
2018-12-05T09:35:19.386Z,5720.00
2018-12-05T09:36:19.377Z,5768.00
2018-12-05T09:37:19.371Z,5776.00
2018-12-05T09:38:19.356Z,5844.00
2018-12-05T09:39:19.344Z,5912.00
2018-12-05T09:40:19.335Z,5892.00
2018-12-05T09:41:19.324Z,5820.00
2018-12-05T09:42:19.315Z,5688.00
2018-12-05T09:43:19.307Z,5552.00
2018-12-05T09:44:19.339Z,5364.00
2018-12-05T09:45:19.384Z,5152.00
2018-12-05T09:46:19.273Z,5060.00
2018-12-05T09:47:19.270Z,4816.00
2018-12-05T09:48:19.253Z,4544.00
2018-12-05T09:49:19.247Z,4320.00
2018-12-05T09:50:19.233Z,4284.00
2018-12-05T09:51:19.224Z,4352.00
2018-12-05T09:52:19.215Z,4436.00
2018-12-05T09:53:19.205Z,4556.00
2018-12-05T09:54:19.194Z,4648.00
2018-12-05T09:55:19.186Z,4788.00
2018-12-05T09:56:19.173Z,5004.00
2018-12-05T09:57:19.170Z,5264.00
2018-12-05T09:58:19.152Z,5328.00
2018-12-05T09:59:19.143Z,5288.00
2018-12-05T10:00:19.132Z,5228.00
2018-12-05T10:01:19.123Z,5280.00
2018-12-05T10:02:19.115Z,5348.00
2018-12-05T10:03:19.102Z,5308.00
2018-12-05T10:04:19.092Z,5224.00
2018-12-05T10:05:19.082Z,5124.00
2018-12-05T10:06:19.122Z,4956.00
2018-12-05T10:07:19.067Z,4856.00
2018-12-05T10:08:19.062Z,4908.00
2018-12-05T10:09:19.046Z,5140.00
2018-12-05T10:10:19.033Z,5412.00
2018-12-05T10:11:19.022Z,5592.00
2018-12-05T10:12:19.013Z,5728.00
2018-12-05T10:13:19.005Z,5736.00
2018-12-05T10:14:18.994Z,5652.00
2018-12-05T10:15:18.991Z,5740.00
2018-12-05T10:16:18.973Z,5952.00
2018-12-05T10:17:18.967Z,5964.00
2018-12-05T10:18:18.953Z,5840.00
2018-12-05T10:19:18.942Z,5656.00
2018-12-05T10:20:18.937Z,5488.00
2018-12-05T10:21:18.923Z,5408.00
2018-12-05T10:22:18.912Z,5352.00
2018-12-05T10:23:18.903Z,5312.00
2018-12-05T10:24:18.893Z,5224.00
2018-12-05T10:25:18.883Z,5240.00
2018-12-05T10:26:18.872Z,5504.00
2018-12-05T10:27:18.862Z,5828.00
2018-12-05T10:28:18.859Z,6132.00
2018-12-05T10:29:18.846Z,6164.00
2018-12-05T10:30:18.836Z,5908.00
2018-12-05T10:31:18.822Z,5416.00
2018-12-05T10:32:18.814Z,4976.00
2018-12-05T10:33:18.805Z,4812.00
2018-12-05T10:34:18.793Z,4960.00
2018-12-05T10:35:18.985Z,5244.00
2018-12-05T10:36:18.773Z,5436.00
2018-12-05T10:37:19.168Z,5452.00
2018-12-05T10:38:18.753Z,5368.00
2018-12-05T10:39:18.743Z,5280.00
2018-12-05T10:40:18.733Z,5420.00
2018-12-05T10:41:18.723Z,5660.00
2018-12-05T10:42:18.713Z,5812.00
2018-12-05T10:43:18.703Z,5916.00
2018-12-05T10:44:18.695Z,5680.00
2018-12-05T10:45:18.684Z,5768.00
2018-12-05T10:46:18.673Z,5428.00
2018-12-05T10:47:18.666Z,5296.00
2018-12-05T10:48:18.656Z,5300.00
2018-12-05T10:49:18.644Z,5744.00
2018-12-05T10:50:18.633Z,6040.00
2018-12-05T10:51:18.624Z,6208.00
2018-12-05T10:52:18.618Z,6452.00
2018-12-05T10:53:18.606Z,6600.00
2018-12-05T10:54:18.597Z,6780.00
2018-12-05T10:55:18.583Z,6472.00
2018-12-05T10:56:18.575Z,6332.00
2018-12-05T10:57:18.564Z,6176.00
2018-12-05T10:58:18.554Z,6080.00
2018-12-05T10:59:18.544Z,6048.00
2018-12-05T11:00:18.534Z,6024.00
2018-12-05T11:01:18.524Z,6124.00
2018-12-05T11:02:18.568Z,6048.00
2018-12-05T11:03:18.503Z,5972.00
2018-12-05T11:04:18.504Z,5968.00
2018-12-05T11:05:18.491Z,6152.00
2018-12-05T11:06:18.482Z,6384.00
2018-12-05T11:07:18.665Z,6944.00
2018-12-05T11:08:18.458Z,7072.00
2018-12-05T11:09:18.449Z,7332.00
2018-12-05T11:10:18.437Z,7620.00
2018-12-05T11:11:18.428Z,8000.00
2018-12-05T11:12:18.418Z,8092.00
2018-12-05T11:13:19.294Z,8440.00
2018-12-05T11:14:18.397Z,8332.00
2018-12-05T11:15:18.388Z,8024.00
2018-12-05T11:16:18.377Z,8032.00
2018-12-05T11:17:18.371Z,11604.00
2018-12-05T11:18:18.357Z,11428.00
2018-12-05T11:19:18.358Z,10692.00
2018-12-05T11:20:18.343Z,12276.00
2018-12-05T11:21:18.332Z,12080.00
2018-12-05T11:22:18.324Z,11388.00
2018-12-05T11:23:18.312Z,11116.00
2018-12-05T11:24:18.305Z,10692.00
2018-12-05T11:25:18.299Z,10400.00
2018-12-05T11:26:18.289Z,10100.00
2018-12-05T11:27:18.277Z,10020.00
2018-12-05T11:28:18.270Z,9836.00
2018-12-05T11:29:18.261Z,9612.00
2018-12-05T11:30:18.254Z,9292.00
2018-12-05T11:31:18.246Z,8872.00
2018-12-05T11:32:18.239Z,8612.00
2018-12-05T11:33:18.231Z,8492.00
2018-12-05T11:34:18.219Z,8112.00
2018-12-05T11:35:18.213Z,7936.00
2018-12-05T11:36:18.203Z,7656.00
2018-12-05T11:37:18.197Z,7596.00
2018-12-05T11:38:18.188Z,7332.00
2018-12-05T11:39:18.181Z,7216.00
2018-12-05T11:40:18.174Z,6920.00
2018-12-05T11:41:18.169Z,6488.00
2018-12-05T11:42:18.161Z,5984.00
2018-12-05T11:43:18.151Z,6044.00
2018-12-05T11:44:18.146Z,6004.00
2018-12-05T11:45:18.138Z,6128.00
2018-12-05T11:46:18.130Z,5636.00
2018-12-05T11:47:18.144Z,5692.00
2018-12-05T11:48:18.119Z,5796.00
2018-12-05T11:49:18.316Z,7200.00
2018-12-05T11:50:18.101Z,6000.00
2018-12-05T11:51:18.091Z,4224.00
2018-12-05T11:52:18.084Z,4160.00
2018-12-05T11:53:18.077Z,3588.00
2018-12-05T11:54:18.066Z,3788.00
2018-12-05T11:55:18.058Z,4276.00
2018-12-05T11:56:18.054Z,3456.00
2018-12-05T11:57:18.042Z,3544.00
2018-12-05T11:58:18.036Z,3704.00
2018-12-05T11:59:18.029Z,3748.00
2018-12-05T12:00:18.017Z,3920.00
2018-12-05T12:01:18.015Z,4260.00
2018-12-05T12:02:22.326Z,4472.00
2018-12-05T12:03:17.997Z,4624.00
2018-12-05T12:04:17.983Z,5040.00
2018-12-05T12:05:17.974Z,6764.00
2018-12-05T12:06:17.965Z,7700.00
2018-12-05T12:07:17.957Z,7200.00
2018-12-05T12:08:17.949Z,7372.00
2018-12-05T12:09:17.940Z,7696.00
2018-12-05T12:10:17.940Z,9392.00
2018-12-05T12:11:17.937Z,9408.00
2018-12-05T12:12:17.916Z,9284.00
2018-12-05T12:13:17.907Z,7876.00
2018-12-05T12:14:17.899Z,7424.00
2018-12-05T12:15:17.900Z,7676.00
2018-12-05T12:16:17.886Z,5588.00
2018-12-05T12:17:17.882Z,5128.00
2018-12-05T12:18:17.868Z,5056.00
2018-12-05T12:19:17.864Z,5156.00
2018-12-05T12:20:17.865Z,5432.00
2018-12-05T12:21:17.847Z,5296.00
2018-12-05T12:22:17.850Z,5196.00
2018-12-05T12:23:17.830Z,5192.00
2018-12-05T12:24:17.823Z,5324.00
2018-12-05T12:25:17.820Z,5488.00
2018-12-05T12:26:17.815Z,5656.00
2018-12-05T12:27:17.801Z,5712.00
2018-12-05T12:28:17.797Z,5624.00
2018-12-05T12:29:17.783Z,5452.00
2018-12-05T12:30:17.779Z,5308.00
2018-12-05T12:31:17.772Z,5180.00
2018-12-05T12:32:17.762Z,5016.00
2018-12-05T12:33:17.751Z,4768.00
2018-12-05T12:34:17.747Z,4724.00
2018-12-05T12:35:17.739Z,4512.00
2018-12-05T12:36:17.730Z,4224.00
2018-12-05T12:37:17.717Z,3992.00
2018-12-05T12:38:17.712Z,4000.00
2018-12-05T12:39:17.704Z,4136.00
2018-12-05T12:40:17.692Z,4188.00
2018-12-05T12:41:17.683Z,4148.00
2018-12-05T12:42:17.674Z,4004.00
2018-12-05T12:43:17.664Z,3900.00
2018-12-05T12:44:17.656Z,3740.00
2018-12-05T12:45:17.646Z,3488.00
2018-12-05T12:46:17.636Z,3256.00
2018-12-05T12:47:17.628Z,3240.00
2018-12-05T12:48:17.619Z,3308.00
2018-12-05T12:49:17.610Z,3484.00